sensor_id;sensor_type;location;lat;lon;timestamp;temperature;humidity
20068;DHT22;10194;50.824;7.134;2023-02-26T00:01:21;-0.40;99.90
20068;DHT22;10194;50.824;7.134;2023-02-26T00:03:55;-0.40;99.90
20068;DHT22;10194;50.824;7.134;2023-02-26T00:06:23;-0.50;99.90
20068;DHT22;10194;50.824;7.134;2023-02-26T00:08:50;-0.50;99.90
20068;DHT22;10194;50.824;7.134;2023-02-26T00:11:16;-0.50;99.90
20068;DHT22;10194;50.824;7.134;2023-02-26T00:13:43;-0.60;99.90
20068;DHT22;10194;50.824;7.134;2023-02-26T00:16:28;-0.50;99.90
20068;DHT22;10194;50.824;7.134;2023-02-26T00:18:57;-0.50;99.90
20068;DHT22;10194;50.824;7.134;2023-02-26T00:21:26;-0.40;99.90
20068;DHT22;10194;50.824;7.134;2023-02-26T00:23:53;-0.30;99.90
20068;DHT22;10194;50.824;7.134;2023-02-26T00:26:19;-0.30;99.90
20068;DHT22;10194;50.824;7.134;2023-02-26T00:28:46;-0.30;99.90
20068;DHT22;10194;50.824;7.134;2023-02-26T00:31:14;-0.30;99.90
20068;DHT22;10194;50.824;7.134;2023-02-26T00:33:41;-0.30;99.90
20068;DHT22;10194;50.824;7.134;2023-02-26T00:36:41;-0.30;99.90
20068;DHT22;10194;50.824;7.134;2023-02-26T00:42:10;-0.30;99.90
20068;DHT22;10194;50.824;7.134;2023-02-26T00:44:37;-0.40;99.90
20068;DHT22;10194;50.824;7.134;2023-02-26T00:47:12;-0.30;99.90
20068;DHT22;10194;50.824;7.134;2023-02-26T00:52:43;-0.10;99.90
20068;DHT22;10194;50.824;7.134;2023-02-26T00:55:15;-0.10;99.90
20068;DHT22;10194;50.824;7.134;2023-02-26T00:57:40;0.00;99.90
20068;DHT22;10194;50.824;7.134;2023-02-26T01:00:07;-0.10;99.90
20068;DHT22;10194;50.824;7.134;2023-02-26T01:02:34;-0.10;99.90
20068;DHT22;10194;50.824;7.134;2023-02-26T01:05:01;-0.10;99.90
20068;DHT22;10194;50.824;7.134;2023-02-26T01:07:30;-0.20;99.90
20068;DHT22;10194;50.824;7.134;2023-02-26T01:10:03;-0.20;99.90
20068;DHT22;10194;50.824;7.134;2023-02-26T01:12:29;-0.20;99.90
20068;DHT22;10194;50.824;7.134;2023-02-26T01:14:55;-0.20;99.90
20068;DHT22;10194;50.824;7.134;2023-02-26T01:17:27;-0.30;99.90
20068;DHT22;10194;50.824;7.134;2023-02-26T01:20:13;-0.30;99.90
20068;DHT22;10194;50.824;7.134;2023-02-26T01:22:54;-0.30;99.90
20068;DHT22;10194;50.824;7.134;2023-02-26T01:25:34;-0.40;99.90
20068;DHT22;10194;50.824;7.134;2023-02-26T01:28:03;-0.50;99.90
20068;DHT22;10194;50.824;7.134;2023-02-26T01:30:30;-0.50;99.90
20068;DHT22;10194;50.824;7.134;2023-02-26T01:33:08;-0.40;99.90
20068;DHT22;10194;50.824;7.134;2023-02-26T01:35:52;-0.50;99.90
20068;DHT22;10194;50.824;7.134;2023-02-26T01:38:39;-0.50;99.90
20068;DHT22;10194;50.824;7.134;2023-02-26T01:44:35;-0.60;99.90
20068;DHT22;10194;50.824;7.134;2023-02-26T01:49:41;-0.80;99.90
20068;DHT22;10194;50.824;7.134;2023-02-26T01:55:21;-0.90;99.90
20068;DHT22;10194;50.824;7.134;2023-02-26T01:57:51;-0.80;99.90
20068;DHT22;10194;50.824;7.134;2023-02-26T02:00:18;-0.80;99.90
20068;DHT22;10194;50.824;7.134;2023-02-26T02:02:44;-0.90;99.90
20068;DHT22;10194;50.824;7.134;2023-02-26T02:05:31;-0.90;99.90
20068;DHT22;10194;50.824;7.134;2023-02-26T02:07:59;-0.90;99.90
20068;DHT22;10194;50.824;7.134;2023-02-26T02:10:26;-1.00;99.90
20068;DHT22;10194;50.824;7.134;2023-02-26T02:12:59;-1.10;99.90
20068;DHT22;10194;50.824;7.134;2023-02-26T02:15:45;-1.20;99.90
20068;DHT22;10194;50.824;7.134;2023-02-26T02:18:51;-1.20;99.90
20068;DHT22;10194;50.824;7.134;2023-02-26T02:21:29;-1.20;99.90
20068;DHT22;10194;50.824;7.134;2023-02-26T02:27:12;-1.30;99.90
20068;DHT22;10194;50.824;7.134;2023-02-26T02:32:50;-1.40;99.90
20068;DHT22;10194;50.824;7.134;2023-02-26T02:35:37;-1.40;99.90
20068;DHT22;10194;50.824;7.134;2023-02-26T02:41:02;-1.10;99.90
20068;DHT22;10194;50.824;7.134;2023-02-26T02:43:33;-1.10;99.90
20068;DHT22;10194;50.824;7.134;2023-02-26T02:46:06;-1.10;99.90
20068;DHT22;10194;50.824;7.134;2023-02-26T02:48:38;-1.00;99.90
20068;DHT22;10194;50.824;7.134;2023-02-26T02:51:20;-1.00;99.90
20068;DHT22;10194;50.824;7.134;2023-02-26T02:53:56;-1.00;99.90
20068;DHT22;10194;50.824;7.134;2023-02-26T02:56:42;-0.90;99.90
20068;DHT22;10194;50.824;7.134;2023-02-26T02:59:26;-1.00;99.90
20068;DHT22;10194;50.824;7.134;2023-02-26T03:02:13;-1.00;99.90
20068;DHT22;10194;50.824;7.134;2023-02-26T03:04:42;-0.90;99.90
20068;DHT22;10194;50.824;7.134;2023-02-26T03:07:09;-0.90;99.90
20068;DHT22;10194;50.824;7.134;2023-02-26T03:09:35;-1.00;99.90
20068;DHT22;10194;50.824;7.134;2023-02-26T03:12:01;-1.10;99.90
20068;DHT22;10194;50.824;7.134;2023-02-26T03:14:27;-1.10;99.90
20068;DHT22;10194;50.824;7.134;2023-02-26T03:23:10;-1.10;99.90
20068;DHT22;10194;50.824;7.134;2023-02-26T03:25:56;-1.00;99.90
20068;DHT22;10194;50.824;7.134;2023-02-26T03:28:43;-1.00;99.90
20068;DHT22;10194;50.824;7.134;2023-02-26T03:31:55;-0.90;99.90
20068;DHT22;10194;50.824;7.134;2023-02-26T03:37:51;-0.90;99.90
20068;DHT22;10194;50.824;7.134;2023-02-26T03:40:30;-0.90;99.90
20068;DHT22;10194;50.824;7.134;2023-02-26T03:43:03;-1.00;99.90
20068;DHT22;10194;50.824;7.134;2023-02-26T03:45:37;-1.00;99.90
20068;DHT22;10194;50.824;7.134;2023-02-26T03:48:06;-0.90;99.90
20068;DHT22;10194;50.824;7.134;2023-02-26T03:50:35;-0.90;99.90
20068;DHT22;10194;50.824;7.134;2023-02-26T03:53:10;-0.80;99.90
20068;DHT22;10194;50.824;7.134;2023-02-26T03:55:40;-0.80;99.90
20068;DHT22;10194;50.824;7.134;2023-02-26T03:58:09;-0.80;99.90
20068;DHT22;10194;50.824;7.134;2023-02-26T04:00:37;-0.80;99.90
20068;DHT22;10194;50.824;7.134;2023-02-26T04:03:31;-0.80;99.90
20068;DHT22;10194;50.824;7.134;2023-02-26T04:06:00;-0.80;99.90
20068;DHT22;10194;50.824;7.134;2023-02-26T04:08:28;-0.80;99.90
20068;DHT22;10194;50.824;7.134;2023-02-26T04:10:58;-0.90;99.90
20068;DHT22;10194;50.824;7.134;2023-02-26T04:13:28;-0.90;99.90
20068;DHT22;10194;50.824;7.134;2023-02-26T04:15:53;-0.90;99.90
20068;DHT22;10194;50.824;7.134;2023-02-26T04:18:19;-1.00;99.90
20068;DHT22;10194;50.824;7.134;2023-02-26T04:20:45;-1.10;99.90
20068;DHT22;10194;50.824;7.134;2023-02-26T04:23:11;-1.10;99.90
20068;DHT22;10194;50.824;7.134;2023-02-26T04:25:36;-1.00;99.90
20068;DHT22;10194;50.824;7.134;2023-02-26T04:28:02;-1.00;99.90
20068;DHT22;10194;50.824;7.134;2023-02-26T04:30:28;-1.10;99.90
20068;DHT22;10194;50.824;7.134;2023-02-26T04:32:54;-1.10;99.90
20068;DHT22;10194;50.824;7.134;2023-02-26T04:35:20;-1.20;99.90
20068;DHT22;10194;50.824;7.134;2023-02-26T04:37:45;-1.20;99.90
20068;DHT22;10194;50.824;7.134;2023-02-26T04:40:11;-1.30;99.90
20068;DHT22;10194;50.824;7.134;2023-02-26T04:42:37;-1.40;99.90
20068;DHT22;10194;50.824;7.134;2023-02-26T04:45:03;-1.50;99.90
20068;DHT22;10194;50.824;7.134;2023-02-26T04:47:29;-1.40;99.90
20068;DHT22;10194;50.824;7.134;2023-02-26T04:49:55;-1.30;99.90
20068;DHT22;10194;50.824;7.134;2023-02-26T04:52:21;-1.20;99.90
20068;DHT22;10194;50.824;7.134;2023-02-26T04:54:47;-1.20;99.90
20068;DHT22;10194;50.824;7.134;2023-02-26T04:57:12;-1.10;99.90
20068;DHT22;10194;50.824;7.134;2023-02-26T04:59:38;-1.10;99.90
20068;DHT22;10194;50.824;7.134;2023-02-26T05:02:04;-1.10;99.90
20068;DHT22;10194;50.824;7.134;2023-02-26T05:04:30;-1.10;99.90
20068;DHT22;10194;50.824;7.134;2023-02-26T05:06:56;-1.10;99.90
20068;DHT22;10194;50.824;7.134;2023-02-26T05:09:22;-1.10;99.90
20068;DHT22;10194;50.824;7.134;2023-02-26T05:11:48;-1.00;99.90
20068;DHT22;10194;50.824;7.134;2023-02-26T05:14:14;-1.00;99.90
20068;DHT22;10194;50.824;7.134;2023-02-26T05:16:41;-1.10;99.90
20068;DHT22;10194;50.824;7.134;2023-02-26T05:19:07;-1.00;99.90
20068;DHT22;10194;50.824;7.134;2023-02-26T05:21:32;-1.10;99.90
20068;DHT22;10194;50.824;7.134;2023-02-26T05:23:58;-1.10;99.90
20068;DHT22;10194;50.824;7.134;2023-02-26T05:26:24;-1.10;99.90
20068;DHT22;10194;50.824;7.134;2023-02-26T05:28:50;-1.20;99.90
20068;DHT22;10194;50.824;7.134;2023-02-26T05:31:19;-1.10;99.90
20068;DHT22;10194;50.824;7.134;2023-02-26T05:33:45;-1.00;99.90
20068;DHT22;10194;50.824;7.134;2023-02-26T05:36:12;-0.90;99.90
20068;DHT22;10194;50.824;7.134;2023-02-26T05:38:37;-0.90;99.90
20068;DHT22;10194;50.824;7.134;2023-02-26T05:41:03;-0.90;99.90
20068;DHT22;10194;50.824;7.134;2023-02-26T05:43:30;-0.90;99.90
20068;DHT22;10194;50.824;7.134;2023-02-26T05:45:55;-1.00;99.90
20068;DHT22;10194;50.824;7.134;2023-02-26T05:48:22;-1.00;99.90
20068;DHT22;10194;50.824;7.134;2023-02-26T05:50:48;-1.10;99.90
20068;DHT22;10194;50.824;7.134;2023-02-26T05:53:15;-1.20;99.90
20068;DHT22;10194;50.824;7.134;2023-02-26T05:55:40;-1.20;99.90
20068;DHT22;10194;50.824;7.134;2023-02-26T05:58:06;-1.20;99.90
20068;DHT22;10194;50.824;7.134;2023-02-26T06:00:32;-1.20;99.90
20068;DHT22;10194;50.824;7.134;2023-02-26T06:02:58;-1.10;99.90
20068;DHT22;10194;50.824;7.134;2023-02-26T06:05:24;-1.20;99.90
20068;DHT22;10194;50.824;7.134;2023-02-26T06:07:50;-1.20;99.90
20068;DHT22;10194;50.824;7.134;2023-02-26T06:10:16;-1.30;99.90
20068;DHT22;10194;50.824;7.134;2023-02-26T06:12:42;-1.30;99.90
20068;DHT22;10194;50.824;7.134;2023-02-26T06:15:08;-1.20;99.90
20068;DHT22;10194;50.824;7.134;2023-02-26T06:17:35;-1.20;99.90
20068;DHT22;10194;50.824;7.134;2023-02-26T06:20:01;-1.30;99.90
20068;DHT22;10194;50.824;7.134;2023-02-26T06:22:28;-1.30;99.90
20068;DHT22;10194;50.824;7.134;2023-02-26T06:24:54;-1.40;99.90
20068;DHT22;10194;50.824;7.134;2023-02-26T06:27:21;-1.50;99.90
20068;DHT22;10194;50.824;7.134;2023-02-26T06:29:47;-1.50;99.90
20068;DHT22;10194;50.824;7.134;2023-02-26T06:32:13;-1.50;99.90
20068;DHT22;10194;50.824;7.134;2023-02-26T06:34:38;-1.50;99.90
20068;DHT22;10194;50.824;7.134;2023-02-26T06:37:04;-1.40;99.90
20068;DHT22;10194;50.824;7.134;2023-02-26T06:39:30;-1.30;99.90
20068;DHT22;10194;50.824;7.134;2023-02-26T06:41:57;-1.20;99.90
20068;DHT22;10194;50.824;7.134;2023-02-26T06:44:22;-1.30;99.90
20068;DHT22;10194;50.824;7.134;2023-02-26T06:46:48;-1.20;99.90
20068;DHT22;10194;50.824;7.134;2023-02-26T06:49:14;-1.30;99.90
20068;DHT22;10194;50.824;7.134;2023-02-26T06:51:40;-1.30;99.90
20068;DHT22;10194;50.824;7.134;2023-02-26T06:54:06;-1.20;99.90
20068;DHT22;10194;50.824;7.134;2023-02-26T06:56:31;-1.10;99.90
20068;DHT22;10194;50.824;7.134;2023-02-26T06:58:57;-1.20;99.90
20068;DHT22;10194;50.824;7.134;2023-02-26T07:01:23;-1.10;99.90
20068;DHT22;10194;50.824;7.134;2023-02-26T07:03:49;-1.10;99.90
20068;DHT22;10194;50.824;7.134;2023-02-26T07:06:15;-1.00;99.90
20068;DHT22;10194;50.824;7.134;2023-02-26T07:08:41;-1.00;99.90
20068;DHT22;10194;50.824;7.134;2023-02-26T07:11:07;-0.90;99.90
20068;DHT22;10194;50.824;7.134;2023-02-26T07:13:35;-0.80;99.90
20068;DHT22;10194;50.824;7.134;2023-02-26T07:16:03;-0.70;99.90
20068;DHT22;10194;50.824;7.134;2023-02-26T07:18:32;-0.60;99.90
20068;DHT22;10194;50.824;7.134;2023-02-26T07:20:59;-0.50;99.90
20068;DHT22;10194;50.824;7.134;2023-02-26T07:23:24;-0.40;99.90
20068;DHT22;10194;50.824;7.134;2023-02-26T07:25:50;-0.30;99.90
20068;DHT22;10194;50.824;7.134;2023-02-26T07:28:16;-0.40;99.90
20068;DHT22;10194;50.824;7.134;2023-02-26T07:30:42;-0.30;99.90
20068;DHT22;10194;50.824;7.134;2023-02-26T07:33:08;-0.20;99.90
20068;DHT22;10194;50.824;7.134;2023-02-26T07:35:34;0.10;99.90
20068;DHT22;10194;50.824;7.134;2023-02-26T07:38:00;0.50;99.90
20068;DHT22;10194;50.824;7.134;2023-02-26T07:40:26;0.90;99.90
20068;DHT22;10194;50.824;7.134;2023-02-26T07:42:52;1.10;99.90
20068;DHT22;10194;50.824;7.134;2023-02-26T07:45:18;1.50;99.90
20068;DHT22;10194;50.824;7.134;2023-02-26T07:47:47;1.90;99.90
20068;DHT22;10194;50.824;7.134;2023-02-26T07:50:14;2.00;99.90
20068;DHT22;10194;50.824;7.134;2023-02-26T07:52:40;1.70;99.90
20068;DHT22;10194;50.824;7.134;2023-02-26T07:55:06;1.50;99.90
20068;DHT22;10194;50.824;7.134;2023-02-26T07:57:32;1.20;99.90
20068;DHT22;10194;50.824;7.134;2023-02-26T07:59:58;1.00;99.90
20068;DHT22;10194;50.824;7.134;2023-02-26T08:02:24;0.90;99.90
20068;DHT22;10194;50.824;7.134;2023-02-26T08:04:50;1.00;99.90
20068;DHT22;10194;50.824;7.134;2023-02-26T08:07:16;1.00;99.90
20068;DHT22;10194;50.824;7.134;2023-02-26T08:09:42;1.10;99.90
20068;DHT22;10194;50.824;7.134;2023-02-26T08:12:08;1.20;99.90
20068;DHT22;10194;50.824;7.134;2023-02-26T08:14:34;1.20;99.90
20068;DHT22;10194;50.824;7.134;2023-02-26T08:17:00;1.20;99.90
20068;DHT22;10194;50.824;7.134;2023-02-26T08:19:25;1.30;99.90
20068;DHT22;10194;50.824;7.134;2023-02-26T08:21:51;1.30;99.90
20068;DHT22;10194;50.824;7.134;2023-02-26T08:24:20;1.50;99.90
20068;DHT22;10194;50.824;7.134;2023-02-26T08:26:46;1.50;99.90
20068;DHT22;10194;50.824;7.134;2023-02-26T08:29:12;1.40;99.90
20068;DHT22;10194;50.824;7.134;2023-02-26T08:31:38;1.30;99.90
20068;DHT22;10194;50.824;7.134;2023-02-26T08:34:04;1.30;99.90
20068;DHT22;10194;50.824;7.134;2023-02-26T08:36:30;1.30;99.90
20068;DHT22;10194;50.824;7.134;2023-02-26T08:38:56;1.40;99.90
20068;DHT22;10194;50.824;7.134;2023-02-26T08:41:23;1.40;99.90
20068;DHT22;10194;50.824;7.134;2023-02-26T08:43:51;1.40;99.90
20068;DHT22;10194;50.824;7.134;2023-02-26T08:46:17;1.40;99.90
20068;DHT22;10194;50.824;7.134;2023-02-26T08:48:43;1.50;99.90
20068;DHT22;10194;50.824;7.134;2023-02-26T08:51:09;1.60;99.90
20068;DHT22;10194;50.824;7.134;2023-02-26T08:53:34;1.50;99.90
20068;DHT22;10194;50.824;7.134;2023-02-26T08:56:00;1.50;99.90
20068;DHT22;10194;50.824;7.134;2023-02-26T08:58:26;1.60;99.90
20068;DHT22;10194;50.824;7.134;2023-02-26T09:00:52;1.80;99.90
20068;DHT22;10194;50.824;7.134;2023-02-26T09:03:18;2.00;99.90
20068;DHT22;10194;50.824;7.134;2023-02-26T09:05:44;2.20;99.90
20068;DHT22;10194;50.824;7.134;2023-02-26T09:08:09;2.30;99.90
20068;DHT22;10194;50.824;7.134;2023-02-26T09:10:36;2.50;99.90
20068;DHT22;10194;50.824;7.134;2023-02-26T09:13:02;2.40;99.90
20068;DHT22;10194;50.824;7.134;2023-02-26T09:15:28;2.60;99.90
20068;DHT22;10194;50.824;7.134;2023-02-26T09:17:53;2.70;99.90
20068;DHT22;10194;50.824;7.134;2023-02-26T09:20:19;2.80;99.90
20068;DHT22;10194;50.824;7.134;2023-02-26T09:22:45;2.90;99.90
20068;DHT22;10194;50.824;7.134;2023-02-26T09:25:12;2.80;99.90
20068;DHT22;10194;50.824;7.134;2023-02-26T09:27:40;2.90;99.90
20068;DHT22;10194;50.824;7.134;2023-02-26T09:30:06;2.90;99.90
20068;DHT22;10194;50.824;7.134;2023-02-26T09:32:32;2.90;99.90
20068;DHT22;10194;50.824;7.134;2023-02-26T09:34:58;2.70;99.90
20068;DHT22;10194;50.824;7.134;2023-02-26T09:37:24;2.60;99.90
20068;DHT22;10194;50.824;7.134;2023-02-26T09:39:49;2.70;99.90
20068;DHT22;10194;50.824;7.134;2023-02-26T09:45:15;3.00;99.90
20068;DHT22;10194;50.824;7.134;2023-02-26T09:47:50;3.00;99.90
20068;DHT22;10194;50.824;7.134;2023-02-26T09:50:24;3.00;99.90
20068;DHT22;10194;50.824;7.134;2023-02-26T09:53:04;2.80;99.90
20068;DHT22;10194;50.824;7.134;2023-02-26T09:55:44;2.80;99.90
20068;DHT22;10194;50.824;7.134;2023-02-26T09:58:37;2.90;99.90
20068;DHT22;10194;50.824;7.134;2023-02-26T10:01:22;2.90;99.90
20068;DHT22;10194;50.824;7.134;2023-02-26T10:10:06;3.10;99.90
20068;DHT22;10194;50.824;7.134;2023-02-26T10:12:40;3.30;99.90
20068;DHT22;10194;50.824;7.134;2023-02-26T10:15:29;3.20;99.90
20068;DHT22;10194;50.824;7.134;2023-02-26T10:18:13;3.30;99.90
20068;DHT22;10194;50.824;7.134;2023-02-26T10:20:53;3.10;99.90
20068;DHT22;10194;50.824;7.134;2023-02-26T10:32:20;3.10;99.90
20068;DHT22;10194;50.824;7.134;2023-02-26T10:34:54;3.10;99.90
20068;DHT22;10194;50.824;7.134;2023-02-26T10:38:09;3.10;99.90
20068;DHT22;10194;50.824;7.134;2023-02-26T10:40:50;3.10;99.90
20068;DHT22;10194;50.824;7.134;2023-02-26T10:43:47;3.20;99.90
20068;DHT22;10194;50.824;7.134;2023-02-26T10:46:38;3.20;99.90
20068;DHT22;10194;50.824;7.134;2023-02-26T10:49:26;3.20;99.90
20068;DHT22;10194;50.824;7.134;2023-02-26T10:52:16;3.20;99.90
20068;DHT22;10194;50.824;7.134;2023-02-26T10:58:08;3.10;99.90
20068;DHT22;10194;50.824;7.134;2023-02-26T11:00:42;3.20;99.90
20068;DHT22;10194;50.824;7.134;2023-02-26T11:03:18;3.10;99.90
20068;DHT22;10194;50.824;7.134;2023-02-26T11:05:47;3.10;99.90
20068;DHT22;10194;50.824;7.134;2023-02-26T11:08:26;3.20;99.90
20068;DHT22;10194;50.824;7.134;2023-02-26T11:10:57;3.20;99.90
20068;DHT22;10194;50.824;7.134;2023-02-26T11:13:28;3.40;99.90
20068;DHT22;10194;50.824;7.134;2023-02-26T11:16:00;3.10;99.90
20068;DHT22;10194;50.824;7.134;2023-02-26T11:18:39;3.00;99.90
20068;DHT22;10194;50.824;7.134;2023-02-26T11:21:07;3.10;99.90
20068;DHT22;10194;50.824;7.134;2023-02-26T11:23:34;3.20;99.90
20068;DHT22;10194;50.824;7.134;2023-02-26T11:26:07;3.20;99.90
20068;DHT22;10194;50.824;7.134;2023-02-26T11:28:43;3.40;99.90
20068;DHT22;10194;50.824;7.134;2023-02-26T11:31:11;3.50;99.90
20068;DHT22;10194;50.824;7.134;2023-02-26T11:33:48;3.70;99.90
20068;DHT22;10194;50.824;7.134;2023-02-26T11:36:21;3.90;99.90
20068;DHT22;10194;50.824;7.134;2023-02-26T11:38:57;4.10;99.90
20068;DHT22;10194;50.824;7.134;2023-02-26T11:41:50;4.20;99.60
20068;DHT22;10194;50.824;7.134;2023-02-26T11:44:26;4.20;99.60
20068;DHT22;10194;50.824;7.134;2023-02-26T11:46:56;4.30;97.90
20068;DHT22;10194;50.824;7.134;2023-02-26T11:49:25;4.30;99.20
20068;DHT22;10194;50.824;7.134;2023-02-26T11:54:37;4.30;98.80
20068;DHT22;10194;50.824;7.134;2023-02-26T11:57:17;4.20;99.10
20068;DHT22;10194;50.824;7.134;2023-02-26T11:59:49;4.20;99.30
20068;DHT22;10194;50.824;7.134;2023-02-26T12:02:19;4.00;98.50
20068;DHT22;10194;50.824;7.134;2023-02-26T12:04:50;3.90;99.70
20068;DHT22;10194;50.824;7.134;2023-02-26T12:07:18;3.80;99.50
20068;DHT22;10194;50.824;7.134;2023-02-26T12:09:45;3.70;99.90
20068;DHT22;10194;50.824;7.134;2023-02-26T12:15:28;3.70;99.90
20068;DHT22;10194;50.824;7.134;2023-02-26T12:18:20;3.80;98.90
20068;DHT22;10194;50.824;7.134;2023-02-26T12:26:52;4.40;98.60
20068;DHT22;10194;50.824;7.134;2023-02-26T12:35:36;4.10;99.10
20068;DHT22;10194;50.824;7.134;2023-02-26T12:38:36;4.00;99.60
20068;DHT22;10194;50.824;7.134;2023-02-26T12:41:30;3.90;99.70
20068;DHT22;10194;50.824;7.134;2023-02-26T12:44:28;3.80;99.90
20068;DHT22;10194;50.824;7.134;2023-02-26T12:52:57;4.00;98.60
20068;DHT22;10194;50.824;7.134;2023-02-26T12:55:30;4.00;99.10
20068;DHT22;10194;50.824;7.134;2023-02-26T13:07:11;3.80;97.50
20068;DHT22;10194;50.824;7.134;2023-02-26T13:21:00;4.10;99.00
20068;DHT22;10194;50.824;7.134;2023-02-26T13:23:45;4.10;98.20
20068;DHT22;10194;50.824;7.134;2023-02-26T13:26:17;4.30;97.20
20068;DHT22;10194;50.824;7.134;2023-02-26T13:28:54;4.40;97.50
20068;DHT22;10194;50.824;7.134;2023-02-26T13:35:00;4.40;97.30
20068;DHT22;10194;50.824;7.134;2023-02-26T13:50:08;4.40;97.50
20068;DHT22;10194;50.824;7.134;2023-02-26T13:52:24;4.50;97.80
20068;DHT22;10194;50.824;7.134;2023-02-26T13:54:52;4.70;97.90
20068;DHT22;10194;50.824;7.134;2023-02-26T14:00:34;4.60;96.10
20068;DHT22;10194;50.824;7.134;2023-02-26T14:10:45;4.20;96.90
20068;DHT22;10194;50.824;7.134;2023-02-26T14:13:21;4.10;96.50
20068;DHT22;10194;50.824;7.134;2023-02-26T14:18:50;4.10;97.20
20068;DHT22;10194;50.824;7.134;2023-02-26T14:24:22;4.40;97.60
20068;DHT22;10194;50.824;7.134;2023-02-26T14:29:43;4.60;97.50
20068;DHT22;10194;50.824;7.134;2023-02-26T14:35:08;4.40;96.10
20068;DHT22;10194;50.824;7.134;2023-02-26T14:37:38;4.20;96.60
20068;DHT22;10194;50.824;7.134;2023-02-26T14:40:18;4.10;97.00
20068;DHT22;10194;50.824;7.134;2023-02-26T14:43:00;4.10;97.00
20068;DHT22;10194;50.824;7.134;2023-02-26T14:45:29;4.00;97.20
20068;DHT22;10194;50.824;7.134;2023-02-26T14:47:59;4.10;97.70
20068;DHT22;10194;50.824;7.134;2023-02-26T15:02:32;4.20;95.60
20068;DHT22;10194;50.824;7.134;2023-02-26T15:24:55;4.30;94.60
20068;DHT22;10194;50.824;7.134;2023-02-26T15:27:21;4.30;94.10
20068;DHT22;10194;50.824;7.134;2023-02-26T15:29:48;4.30;94.80
20068;DHT22;10194;50.824;7.134;2023-02-26T15:35:05;4.30;94.90
20068;DHT22;10194;50.824;7.134;2023-02-26T15:37:40;4.40;94.90
20068;DHT22;10194;50.824;7.134;2023-02-26T15:40:06;4.50;94.30
20068;DHT22;10194;50.824;7.134;2023-02-26T15:42:36;4.40;94.70
20068;DHT22;10194;50.824;7.134;2023-02-26T15:45:11;4.40;94.10
20068;DHT22;10194;50.824;7.134;2023-02-26T15:47:40;4.30;94.90
20068;DHT22;10194;50.824;7.134;2023-02-26T15:50:08;4.20;95.40
20068;DHT22;10194;50.824;7.134;2023-02-26T15:52:39;4.00;95.80
20068;DHT22;10194;50.824;7.134;2023-02-26T15:55:05;3.90;96.40
20068;DHT22;10194;50.824;7.134;2023-02-26T15:57:32;3.90;96.30
20068;DHT22;10194;50.824;7.134;2023-02-26T16:00:07;3.90;95.70
20068;DHT22;10194;50.824;7.134;2023-02-26T16:02:35;4.00;94.90
20068;DHT22;10194;50.824;7.134;2023-02-26T16:05:03;3.90;95.50
20068;DHT22;10194;50.824;7.134;2023-02-26T16:07:29;4.00;95.30
20068;DHT22;10194;50.824;7.134;2023-02-26T16:09:55;3.90;95.10
20068;DHT22;10194;50.824;7.134;2023-02-26T16:12:35;3.90;95.70
20068;DHT22;10194;50.824;7.134;2023-02-26T16:15:14;3.90;95.30
20068;DHT22;10194;50.824;7.134;2023-02-26T16:17:44;3.90;95.10
20068;DHT22;10194;50.824;7.134;2023-02-26T16:20:17;3.90;95.50
20068;DHT22;10194;50.824;7.134;2023-02-26T16:22:53;3.80;95.90
20068;DHT22;10194;50.824;7.134;2023-02-26T16:25:39;3.80;95.80
20068;DHT22;10194;50.824;7.134;2023-02-26T16:28:20;3.70;95.60
20068;DHT22;10194;50.824;7.134;2023-02-26T16:30:51;3.70;95.30
20068;DHT22;10194;50.824;7.134;2023-02-26T16:33:21;3.60;95.00
20068;DHT22;10194;50.824;7.134;2023-02-26T16:35:54;3.40;96.10
20068;DHT22;10194;50.824;7.134;2023-02-26T16:38:31;3.40;95.80
20068;DHT22;10194;50.824;7.134;2023-02-26T16:41:07;3.40;96.60
20068;DHT22;10194;50.824;7.134;2023-02-26T16:43:56;3.40;96.20
20068;DHT22;10194;50.824;7.134;2023-02-26T16:46:35;3.30;97.40
20068;DHT22;10194;50.824;7.134;2023-02-26T16:49:23;3.20;96.70
20068;DHT22;10194;50.824;7.134;2023-02-26T16:51:51;3.20;97.30
20068;DHT22;10194;50.824;7.134;2023-02-26T16:54:27;3.10;97.50
20068;DHT22;10194;50.824;7.134;2023-02-26T16:57:44;3.00;98.30
20068;DHT22;10194;50.824;7.134;2023-02-26T17:00:02;3.00;98.50
20068;DHT22;10194;50.824;7.134;2023-02-26T17:02:35;3.00;99.00
20068;DHT22;10194;50.824;7.134;2023-02-26T17:05:13;3.00;98.30
20068;DHT22;10194;50.824;7.134;2023-02-26T17:07:55;2.90;99.20
20068;DHT22;10194;50.824;7.134;2023-02-26T17:10:33;2.80;98.30
20068;DHT22;10194;50.824;7.134;2023-02-26T17:13:12;2.70;98.90
20068;DHT22;10194;50.824;7.134;2023-02-26T17:15:38;2.60;99.40
20068;DHT22;10194;50.824;7.134;2023-02-26T17:18:05;2.70;99.00
20068;DHT22;10194;50.824;7.134;2023-02-26T17:20:33;2.70;99.10
20068;DHT22;10194;50.824;7.134;2023-02-26T17:23:01;2.60;99.40
20068;DHT22;10194;50.824;7.134;2023-02-26T17:25:33;2.50;99.90
20068;DHT22;10194;50.824;7.134;2023-02-26T17:28:01;2.50;99.90
20068;DHT22;10194;50.824;7.134;2023-02-26T17:30:27;2.40;99.90
20068;DHT22;10194;50.824;7.134;2023-02-26T17:32:57;2.30;99.90
20068;DHT22;10194;50.824;7.134;2023-02-26T17:35:24;2.30;99.90
20068;DHT22;10194;50.824;7.134;2023-02-26T17:37:50;2.20;99.90
20068;DHT22;10194;50.824;7.134;2023-02-26T17:40:25;2.10;99.90
20068;DHT22;10194;50.824;7.134;2023-02-26T17:42:53;2.00;99.90
20068;DHT22;10194;50.824;7.134;2023-02-26T17:45:19;2.00;99.90
20068;DHT22;10194;50.824;7.134;2023-02-26T17:47:45;1.90;99.90
20068;DHT22;10194;50.824;7.134;2023-02-26T17:50:42;1.90;99.90
20068;DHT22;10194;50.824;7.134;2023-02-26T17:53:12;1.80;99.90
20068;DHT22;10194;50.824;7.134;2023-02-26T17:55:39;1.70;99.90
20068;DHT22;10194;50.824;7.134;2023-02-26T17:58:06;1.70;99.90
20068;DHT22;10194;50.824;7.134;2023-02-26T18:00:34;1.70;99.90
20068;DHT22;10194;50.824;7.134;2023-02-26T18:03:05;1.60;99.90
20068;DHT22;10194;50.824;7.134;2023-02-26T18:05:31;1.60;99.90
20068;DHT22;10194;50.824;7.134;2023-02-26T18:08:05;1.60;99.90
20068;DHT22;10194;50.824;7.134;2023-02-26T18:10:32;1.50;99.90
20068;DHT22;10194;50.824;7.134;2023-02-26T18:12:58;1.50;99.90
20068;DHT22;10194;50.824;7.134;2023-02-26T18:15:25;1.40;99.90
20068;DHT22;10194;50.824;7.134;2023-02-26T18:17:51;1.30;99.90
20068;DHT22;10194;50.824;7.134;2023-02-26T18:20:21;1.20;99.90
20068;DHT22;10194;50.824;7.134;2023-02-26T18:22:48;1.00;99.90
20068;DHT22;10194;50.824;7.134;2023-02-26T18:25:15;0.90;99.90
20068;DHT22;10194;50.824;7.134;2023-02-26T18:27:42;0.70;99.90
20068;DHT22;10194;50.824;7.134;2023-02-26T18:30:20;0.60;99.90
20068;DHT22;10194;50.824;7.134;2023-02-26T18:32:48;0.40;99.90
20068;DHT22;10194;50.824;7.134;2023-02-26T18:35:13;0.20;99.90
20068;DHT22;10194;50.824;7.134;2023-02-26T18:37:42;0.10;99.90
20068;DHT22;10194;50.824;7.134;2023-02-26T18:40:17;0.10;99.90
20068;DHT22;10194;50.824;7.134;2023-02-26T18:42:46;0.10;99.90
20068;DHT22;10194;50.824;7.134;2023-02-26T18:45:13;0.10;99.90
20068;DHT22;10194;50.824;7.134;2023-02-26T18:47:39;0.30;99.90
20068;DHT22;10194;50.824;7.134;2023-02-26T18:50:06;0.30;99.90
20068;DHT22;10194;50.824;7.134;2023-02-26T18:52:33;0.30;99.90
20068;DHT22;10194;50.824;7.134;2023-02-26T18:54:59;0.20;99.90
20068;DHT22;10194;50.824;7.134;2023-02-26T18:57:28;0.10;99.90